Wetterstation Oberdrees
Wetterdaten: aktuell Sonntag, 18.08.2019 14:00
Datum Zeit Temp. A. Feuchte A. Luftdruck Regen Wind Richtung Richtung Taupunkt Windchill Windben
18.08.2019 14:00 23,6 C 75 % 1006,8 hPa 0,0 l/m 10,6 km/h (2 Bft) W-SW 241 18,9 C 22,5 C 22,5 km/h (4 Bft)
18.08.2019 13:55 23,6 C 74 % 1006,5 hPa 0,0 l/m 13,0 km/h (3 Bft) W-NW 282 18,7 C 22,0 C 27,4 km/h (5 Bft)
18.08.2019 13:50 23,7 C 74 % 1006,4 hPa 0,0 l/m 14,4 km/h (3 Bft) W 262 18,8 C 21,8 C 32,2 km/h (5 Bft)
18.08.2019 13:45 23,7 C 74 % 1006,3 hPa 0,0 l/m 12,2 km/h (2 Bft) W-SW 254 18,8 C 22,3 C 24,1 km/h (4 Bft)
18.08.2019 13:40 23,8 C 75 % 1006,1 hPa 0,0 l/m 8,6 km/h (2 Bft) W-SW 253 19,1 C 23,2 C 19,3 km/h (3 Bft)
18.08.2019 13:35 23,7 C 74 % 1006,1 hPa 0,0 l/m 9,9 km/h (2 Bft) SW 222 18,8 C 22,8 C 20,9 km/h (4 Bft)
18.08.2019 13:30 23,6 C 75 % 1006,1 hPa 0,0 l/m 10,7 km/h (2 Bft) W-SW 249 18,9 C 22,5 C 27,4 km/h (5 Bft)
18.08.2019 13:25 23,5 C 75 % 1006,0 hPa 0,0 l/m 9,6 km/h (2 Bft) SW 214 18,8 C 22,6 C 24,1 km/h (4 Bft)
18.08.2019 13:20 23,4 C 76 % 1005,9 hPa 0,0 l/m 9,9 km/h (2 Bft) S-SO 166 18,9 C 22,4 C 20,9 km/h (4 Bft)
18.08.2019 13:15 23,2 C 77 % 1005,9 hPa 0,0 l/m 7,0 km/h (2 Bft) W 261 18,9 C 23,0 C 17,7 km/h (3 Bft)
18.08.2019 13:10 23,1 C 77 % 1005,9 hPa 0,0 l/m 9,1 km/h (2 Bft) S-SW 205 18,8 C 22,3 C 25,7 km/h (4 Bft)
18.08.2019 13:05 23,1 C 77 % 1005,9 hPa 0,0 l/m 9,8 km/h (2 Bft) W 264 18,8 C 22,1 C 22,5 km/h (4 Bft)
18.08.2019 13:00 23,1 C 77 % 1005,7 hPa 0,0 l/m 8,7 km/h (2 Bft) W-NW 284 18,8 C 22,4 C 20,9 km/h (4 Bft)
18.08.2019 12:55 23,1 C 78 % 1005,5 hPa 0,0 l/m 8,5 km/h (2 Bft) S-SW 203 19,0 C 22,5 C 19,3 km/h (3 Bft)
18.08.2019 12:50 23,0 C 78 % 1005,3 hPa 0,0 l/m 8,0 km/h (2 Bft) W-SW 251 18,9 C 22,5 C 16,1 km/h (3 Bft)
18.08.2019 12:45 22,9 C 78 % 1005,5 hPa 0,0 l/m 9,8 km/h (2 Bft) W 276 18,9 C 21,9 C 22,5 km/h (4 Bft)
18.08.2019 12:40 22,7 C 78 % 1005,5 hPa 0,0 l/m 7,3 km/h (2 Bft) W 273 18,7 C 22,4 C 29,0 km/h (5 Bft)
18.08.2019 12:35 22,6 C 79 % 1005,5 hPa 0,0 l/m 8,4 km/h (2 Bft) S 189 18,8 C 22,0 C 20,9 km/h (4 Bft)
18.08.2019 12:30 22,5 C 79 % 1005,9 hPa 0,0 l/m 8,4 km/h (2 Bft) S-SW 196 18,7 C 21,9 C 16,1 km/h (3 Bft)
18.08.2019 12:25 22,4 C 79 % 1005,6 hPa 0,0 l/m 6,0 km/h (2 Bft) SW 225 18,6 C 22,4 C 17,7 km/h (3 Bft)
18.08.2019 12:20 22,3 C 79 % 1005,3 hPa 0,0 l/m 9,5 km/h (2 Bft) W-SW 252 18,5 C 21,3 C 24,1 km/h (4 Bft)
18.08.2019 12:15 22,2 C 80 % 1005,3 hPa 0,0 l/m 6,0 km/h (2 Bft) S-SW 202 18,6 C 22,2 C 16,1 km/h (3 Bft)
18.08.2019 12:10 22,1 C 80 % 1005,4 hPa 0,0 l/m 8,4 km/h (2 Bft) SW 231 18,5 C 21,4 C 20,9 km/h (4 Bft)
18.08.2019 12:05 22,1 C 80 % 1005,3 hPa 0,0 l/m 8,7 km/h (2 Bft) W-SW 238 18,5 C 21,3 C 19,3 km/h (3 Bft)
18.08.2019 12:00 22,1 C 80 % 1005,1 hPa 0,0 l/m 7,6 km/h (2 Bft) S 178 18,5 C 21,7 C 17,7 km/h (3 Bft)
18.08.2019 11:55 22,1 C 81 % 1005,2 hPa 0,0 l/m 9,2 km/h (2 Bft) SW 229 18,7 C 21,2 C 20,9 km/h (4 Bft)
18.08.2019 11:50 22,0 C 81 % 1005,2 hPa 0,0 l/m 8,5 km/h (2 Bft) SW 234 18,6 C 21,3 C 19,3 km/h (3 Bft)
18.08.2019 11:45 22,0 C 82 % 1005,4 hPa 0,0 l/m 7,1 km/h (2 Bft) S-SW 199 18,8 C 21,8 C 16,1 km/h (3 Bft)
18.08.2019 11:40 21,9 C 82 % 1005,3 hPa 0,0 l/m 7,7 km/h (2 Bft) S-SW 211 18,7 C 21,4 C 19,3 km/h (3 Bft)
18.08.2019 11:35 21,9 C 82 % 1005,4 hPa 0,0 l/m 6,1 km/h (2 Bft) S-SW 211 18,7 C 21,9 C 14,5 km/h (3 Bft)
18.08.2019 11:30 21,8 C 83 % 1005,4 hPa 0,0 l/m 7,5 km/h (2 Bft) SW 217 18,8 C 21,4 C 16,1 km/h (3 Bft)
18.08.2019 11:25 21,6 C 84 % 1005,4 hPa 0,0 l/m 7,5 km/h (2 Bft) S-SW 204 18,8 C 21,2 C 16,1 km/h (3 Bft)
18.08.2019 11:20 21,4 C 85 % 1005,4 hPa 0,0 l/m 6,3 km/h (2 Bft) SW 236 18,8 C 21,4 C 14,5 km/h (3 Bft)
18.08.2019 11:15 21,2 C 85 % 1005,3 hPa 0,0 l/m 7,1 km/h (2 Bft) S-SW 213 18,6 C 20,9 C 14,5 km/h (3 Bft)
18.08.2019 11:10 21,1 C 86 % 1005,4 hPa 0,0 l/m 5,5 km/h (2 Bft) S 182 18,7 C 21,1 C 11,3 km/h (2 Bft)
18.08.2019 11:05 21,1 C 85 % 1005,4 hPa 0,0 l/m 7,5 km/h (2 Bft) S-SW 205 18,5 C 20,7 C 19,3 km/h (3 Bft)
18.08.2019 11:00 21,0 C 86 % 1005,5 hPa 0,0 l/m 5,9 km/h (2 Bft) W-SW 239 18,6 C 21,0 C 12,9 km/h (3 Bft)
18.08.2019 10:55 20,9 C 86 % 1005,4 hPa 0,0 l/m 8,4 km/h (2 Bft) S-SW 198 18,5 C 20,2 C 16,1 km/h (3 Bft)
18.08.2019 10:50 20,8 C 87 % 1005,4 hPa 0,0 l/m 6,5 km/h (2 Bft) SW 233 18,6 C 20,8 C 12,9 km/h (3 Bft)
18.08.2019 10:45 20,6 C 88 % 1005,5 hPa 0,0 l/m 5,8 km/h (2 Bft) S-SW 213 18,5 C 20,6 C 11,3 km/h (2 Bft)
18.08.2019 10:40 20,2 C 90 % 1005,5 hPa 0,0 l/m 4,6 km/h (1 Bft) SW 216 18,5 C 20,2 C 9,7 km/h (2 Bft)
18.08.2019 10:35 19,7 C 92 % 1005,5 hPa 0,0 l/m 3,0 km/h (1 Bft) S-SW 213 18,4 C 19,7 C 8,0 km/h (2 Bft)
18.08.2019 10:30 19,3 C 93 % 1005,5 hPa 0,0 l/m 1,9 km/h (1 Bft) SW 217 18,1 C 19,3 C 4,8 km/h (1 Bft)
18.08.2019 10:25 18,8 C 94 % 1005,5 hPa 0,0 l/m 3,4 km/h (1 Bft) O-SO 103 17,8 C 18,8 C 12,9 km/h (3 Bft)
18.08.2019 10:20 18,4 C 94 % 1005,6 hPa 0,0 l/m 3,5 km/h (1 Bft) O 101 17,4 C 18,4 C 11,3 km/h (2 Bft)
18.08.2019 10:15 18,3 C 94 % 1005,6 hPa 0,0 l/m 3,2 km/h (1 Bft) O-SO 103 17,3 C 18,3 C 11,3 km/h (2 Bft)
18.08.2019 10:10 18,2 C 94 % 1005,6 hPa 0,0 l/m 3,6 km/h (1 Bft) S-SO 161 17,2 C 18,2 C 11,3 km/h (2 Bft)
18.08.2019 10:05 18,1 C 94 % 1005,7 hPa 0,0 l/m 3,9 km/h (1 Bft) SW 225 17,1 C 18,1 C 11,3 km/h (2 Bft)
18.08.2019 10:00 17,9 C 94 % 1005,8 hPa 0,0 l/m 4,9 km/h (1 Bft) O-SO 109 16,9 C 17,9 C 11,3 km/h (2 Bft)
18.08.2019 09:55 17,8 C 94 % 1005,9 hPa 0,0 l/m 4,5 km/h (1 Bft) O-SO 108 16,8 C 17,8 C 12,9 km/h (3 Bft)
18.08.2019 09:50 17,7 C 95 % 1006,0 hPa 0,0 l/m 4,0 km/h (1 Bft) O-SO 115 16,9 C 17,7 C 9,7 km/h (2 Bft)
18.08.2019 09:45 17,6 C 95 % 1005,9 hPa 0,0 l/m 2,9 km/h (1 Bft) O-SO 113 16,8 C 17,6 C 9,7 km/h (2 Bft)
18.08.2019 09:40 17,5 C 96 % 1006,0 hPa 0,0 l/m 2,7 km/h (1 Bft) O-SO 105 16,9 C 17,5 C 8,0 km/h (2 Bft)
18.08.2019 09:35 17,3 C 96 % 1006,0 hPa 0,0 l/m 3,4 km/h (1 Bft) O 96 16,7 C 17,3 C 9,7 km/h (2 Bft)
18.08.2019 09:30 17,1 C 96 % 1006,1 hPa 0,0 l/m 3,0 km/h (1 Bft) O 93 16,5 C 17,1 C 11,3 km/h (2 Bft)
18.08.2019 09:25 16,9 C 96 % 1006,1 hPa 0,0 l/m 2,1 km/h (1 Bft) O-SO 107 16,3 C 16,9 C 4,8 km/h (1 Bft)
18.08.2019 09:20 16,7 C 97 % 1006,4 hPa 0,0 l/m 3,0 km/h (1 Bft) O-SO 107 16,2 C 16,7 C 6,4 km/h (2 Bft)
18.08.2019 09:15 16,6 C 96 % 1006,2 hPa 0,0 l/m 3,1 km/h (1 Bft) O-SO 107 16,0 C 16,6 C 9,7 km/h (2 Bft)
18.08.2019 09:10 16,4 C 97 % 1006,3 hPa 0,0 l/m 2,5 km/h (1 Bft) S-SO 159 15,9 C 16,4 C 6,4 km/h (2 Bft)
18.08.2019 09:05 16,3 C 97 % 1006,5 hPa 0,0 l/m 2,4 km/h (1 Bft) SO 128 15,8 C 16,3 C 4,8 km/h (1 Bft)
18.08.2019 09:00 16,2 C 97 % 1006,4 hPa 0,0 l/m 1,7 km/h (1 Bft) O-SO 103 15,7 C 16,2 C 3,2 km/h (1 Bft)
18.08.2019 08:55 16,1 C 97 % 1006,7 hPa 0,0 l/m 3,1 km/h (1 Bft) O-SO 116 15,6 C 16,1 C 6,4 km/h (2 Bft)
18.08.2019 08:50 16,0 C 97 % 1006,9 hPa 0,0 l/m 3,4 km/h (1 Bft) O 96 15,5 C 16,0 C 9,7 km/h (2 Bft)
18.08.2019 08:45 15,9 C 97 % 1007,0 hPa 0,0 l/m 1,3 km/h (1 Bft) O-SO 105 15,4 C 15,9 C 4,8 km/h (1 Bft)
18.08.2019 08:40 15,8 C 97 % 1007,1 hPa 0,0 l/m 1,1 km/h (1 Bft) O-SO 103 15,3 C 15,8 C 4,8 km/h (1 Bft)
18.08.2019 08:35 15,7 C 97 % 1006,8 hPa 0,0 l/m 2,6 km/h (1 Bft) O-SO 106 15,2 C 15,7 C 6,4 km/h (2 Bft)
18.08.2019 08:30 15,5 C 97 % 1007,0 hPa 0,0 l/m 1,6 km/h (1 Bft) O-SO 104 15,0 C 15,5 C 4,8 km/h (1 Bft)
18.08.2019 08:25 15,4 C 97 % 1007,1 hPa 0,0 l/m 1,0 km/h (0 Bft) O 86 14,9 C 15,4 C 3,2 km/h (1 Bft)
18.08.2019 08:20 15,3 C 97 % 1007,5 hPa 0,0 l/m 1,9 km/h (1 Bft) O 96 14,8 C 15,3 C 3,2 km/h (1 Bft)
18.08.2019 08:15 15,3 C 97 % 1007,6 hPa 0,0 l/m 2,2 km/h (1 Bft) O 96 14,8 C 15,3 C 4,8 km/h (1 Bft)
18.08.2019 08:10 15,2 C 97 % 1007,5 hPa 0,0 l/m 2,3 km/h (1 Bft) O-SO 109 14,7 C 15,2 C 4,8 km/h (1 Bft)
18.08.2019 08:05 15,1 C 96 % 1007,6 hPa 0,0 l/m 2,0 km/h (1 Bft) O-SO 107 14,5 C 15,1 C 4,8 km/h (1 Bft)
18.08.2019 08:00 15,1 C 96 % 1007,7 hPa 0,0 l/m 2,4 km/h (1 Bft) O-SO 106 14,5 C 15,1 C 9,7 km/h (2 Bft)
18.08.2019 07:55 15,0 C 96 % 1007,7 hPa 0,0 l/m 1,9 km/h (1 Bft) O-SO 103 14,4 C 15,0 C 6,4 km/h (2 Bft)
18.08.2019 07:50 14,9 C 96 % 1007,6 hPa 0,0 l/m 1,6 km/h (1 Bft) O-SO 115 14,3 C 14,9 C 4,8 km/h (1 Bft)
18.08.2019 07:45 14,9 C 96 % 1007,7 hPa 0,0 l/m 1,9 km/h (1 Bft) O 100 14,3 C 14,9 C 6,4 km/h (2 Bft)
18.08.2019 07:40 14,9 C 96 % 1007,6 hPa 0,0 l/m 1,4 km/h (1 Bft) O-SO 109 14,3 C 14,9 C 4,8 km/h (1 Bft)
18.08.2019 07:35 14,9 C 96 % 1007,7 hPa 0,0 l/m 1,8 km/h (1 Bft) O-SO 113 14,3 C 14,9 C 6,4 km/h (2 Bft)
18.08.2019 07:30 14,8 C 96 % 1007,7 hPa 0,0 l/m 2,3 km/h (1 Bft) O-SO 103 14,2 C 14,8 C 4,8 km/h (1 Bft)
18.08.2019 07:25 14,8 C 96 % 1007,8 hPa 0,0 l/m 2,7 km/h (1 Bft) O 89 14,2 C 14,8 C 6,4 km/h (2 Bft)
18.08.2019 07:20 14,7 C 96 % 1007,8 hPa 0,0 l/m 2,2 km/h (1 Bft) O-SO 107 14,1 C 14,7 C 6,4 km/h (2 Bft)
18.08.2019 07:15 14,7 C 96 % 1007,9 hPa 0,2 l/m 2,0 km/h (1 Bft) O-SO 112 14,1 C 14,7 C 4,8 km/h (1 Bft)
18.08.2019 07:10 14,7 C 96 % 1007,9 hPa 0,0 l/m 2,2 km/h (1 Bft) O 93 14,1 C 14,7 C 4,8 km/h (1 Bft)
18.08.2019 07:05 14,7 C 96 % 1007,9 hPa 0,0 l/m 1,0 km/h (0 Bft) O 89 14,1 C 14,7 C 4,8 km/h (1 Bft)
18.08.2019 07:00 14,7 C 96 % 1008,0 hPa 0,0 l/m 0,2 km/h (0 Bft) O 98 14,1 C 14,7 C 3,2 km/h (1 Bft)
18.08.2019 06:55 14,7 C 96 % 1008,0 hPa 0,0 l/m 0,2 km/h (0 Bft) O 98 14,1 C 14,7 C 1,6 km/h (1 Bft)
18.08.2019 06:50 14,7 C 96 % 1008,2 hPa 0,0 l/m 0,1 km/h (0 Bft) O 98 14,1 C 14,7 C 1,6 km/h (1 Bft)
18.08.2019 06:45 14,7 C 96 % 1008,1 hPa 0,0 l/m 0,5 km/h (0 Bft) O 98 14,1 C 14,7 C 3,2 km/h (1 Bft)
18.08.2019 06:40 14,7 C 96 % 1007,8 hPa 0,0 l/m 2,2 km/h (1 Bft) O 97 14,1 C 14,7 C 4,8 km/h (1 Bft)
18.08.2019 06:35 14,7 C 96 % 1008,1 hPa 0,0 l/m 0,9 km/h (0 Bft) O-NO 64 14,1 C 14,7 C 3,2 km/h (1 Bft)
18.08.2019 06:30 14,6 C 96 % 1008,1 hPa 0,0 l/m 0,7 km/h (0 Bft) NO 51 14,0 C 14,6 C 3,2 km/h (1 Bft)
18.08.2019 06:25 14,7 C 96 % 1008,0 hPa 0,0 l/m 0,4 km/h (0 Bft) NO 51 14,1 C 14,7 C 3,2 km/h (1 Bft)
18.08.2019 06:20 14,6 C 96 % 1007,7 hPa 0,0 l/m 1,1 km/h (1 Bft) NO 51 14,0 C 14,6 C 3,2 km/h (1 Bft)
18.08.2019 06:15 14,6 C 96 % 1008,2 hPa 0,0 l/m 0,0 km/h (0 Bft) NO 51 14,0 C 14,6 C 1,6 km/h (1 Bft)
18.08.2019 06:10 14,7 C 96 % 1008,0 hPa 0,0 l/m 0,4 km/h (0 Bft) NO 51 14,1 C 14,7 C 1,6 km/h (1 Bft)
18.08.2019 06:05 14,7 C 96 % 1008,0 hPa 0,0 l/m 1,7 km/h (1 Bft) NO 51 14,1 C 14,7 C 6,4 km/h (2 Bft)
18.08.2019 06:00 14,7 C 96 % 1008,0 hPa 0,0 l/m 1,9 km/h (1 Bft) N 355 14,1 C 14,7 C 3,2 km/h (1 Bft)
18.08.2019 05:55 14,7 C 95 % 1008,4 hPa 0,0 l/m 2,9 km/h (1 Bft) N 349 13,9 C 14,7 C 4,8 km/h (1 Bft)
18.08.2019 05:50 14,8 C 96 % 1008,3 hPa 0,2 l/m 1,7 km/h (1 Bft) N 349 14,2 C 14,8 C 4,8 km/h (1 Bft)
18.08.2019 05:45 14,8 C 96 % 1008,5 hPa 0,0 l/m 1,8 km/h (1 Bft) N-NW 331 14,2 C 14,8 C 4,8 km/h (1 Bft)
18.08.2019 05:40 14,9 C 95 % 1008,3 hPa 0,4 l/m 1,9 km/h (1 Bft) NW 317 14,1 C 14,9 C 6,4 km/h (2 Bft)
18.08.2019 05:35 14,9 C 95 % 1008,4 hPa 0,2 l/m 3,8 km/h (1 Bft) NW 318 14,1 C 14,9 C 11,3 km/h (2 Bft)
18.08.2019 05:30 15,0 C 95 % 1008,5 hPa 0,6 l/m 5,1 km/h (1 Bft) NW 317 14,2 C 15,0 C 12,9 km/h (3 Bft)
18.08.2019 05:25 15,2 C 94 % 1008,5 hPa 0,8 l/m 5,9 km/h (2 Bft) W-NW 301 14,2 C 15,2 C 12,9 km/h (3 Bft)
18.08.2019 05:20 15,3 C 94 % 1008,4 hPa 0,4 l/m 4,5 km/h (1 Bft) NW 323 14,3 C 15,3 C 12,9 km/h (3 Bft)
18.08.2019 05:15 15,5 C 94 % 1008,5 hPa 0,2 l/m 3,8 km/h (1 Bft) NW 319 14,5 C 15,5 C 9,7 km/h (2 Bft)
18.08.2019 05:10 15,8 C 93 % 1008,3 hPa 0,2 l/m 6,4 km/h (2 Bft) NO 35 14,7 C 15,8 C 12,9 km/h (3 Bft)
18.08.2019 05:05 16,3 C 93 % 1008,2 hPa 0,4 l/m 7,9 km/h (2 Bft) NO 35 15,2 C 15,5 C 19,3 km/h (3 Bft)
18.08.2019 05:00 17,2 C 95 % 1008,2 hPa 0,4 l/m 5,1 km/h (1 Bft) N-NO 22 16,4 C 17,2 C 16,1 km/h (3 Bft)
18.08.2019 04:55 17,3 C 95 % 1008,1 hPa 0,2 l/m 5,2 km/h (1 Bft) N-NW 348 16,5 C 17,3 C 9,7 km/h (2 Bft)
18.08.2019 04:50 17,3 C 95 % 1008,1 hPa 0,4 l/m 4,3 km/h (1 Bft) N 5 16,5 C 17,3 C 12,9 km/h (3 Bft)
18.08.2019 04:45 17,3 C 94 % 1008,2 hPa 0,4 l/m 2,2 km/h (1 Bft) NW 325 16,3 C 17,3 C 4,8 km/h (1 Bft)
18.08.2019 04:40 17,4 C 94 % 1008,3 hPa 0,4 l/m 2,1 km/h (1 Bft) W 264 16,4 C 17,4 C 4,8 km/h (1 Bft)
18.08.2019 04:35 17,4 C 94 % 1008,2 hPa 1,0 l/m 3,0 km/h (1 Bft) W-SW 252 16,4 C 17,4 C 6,4 km/h (2 Bft)
18.08.2019 04:30 17,4 C 94 % 1008,4 hPa 0,8 l/m 5,1 km/h (1 Bft) W-SW 247 16,4 C 17,4 C 12,9 km/h (3 Bft)
18.08.2019 04:25 17,4 C 94 % 1008,3 hPa 0,4 l/m 4,2 km/h (1 Bft) W-NW 286 16,4 C 17,4 C 11,3 km/h (2 Bft)
18.08.2019 04:20 17,3 C 94 % 1008,3 hPa 0,4 l/m 1,8 km/h (1 Bft) W-NW 288 16,3 C 17,3 C 4,8 km/h (1 Bft)
18.08.2019 04:15 17,3 C 93 % 1008,2 hPa 0,2 l/m 0,5 km/h (0 Bft) O-NO 61 16,2 C 17,3 C 1,6 km/h (1 Bft)
18.08.2019 04:10 17,4 C 93 % 1008,2 hPa 0,2 l/m 0,8 km/h (0 Bft) O-NO 61 16,3 C 17,4 C 1,6 km/h (1 Bft)
18.08.2019 04:05 17,5 C 93 % 1008,1 hPa 0,0 l/m 0,5 km/h (0 Bft) O-NO 61 16,4 C 17,5 C 3,2 km/h (1 Bft)
18.08.2019 04:00 17,6 C 92 % 1008,1 hPa 0,2 l/m 1,8 km/h (1 Bft) O-NO 61 16,3 C 17,6 C 4,8 km/h (1 Bft)
18.08.2019 03:55 17,7 C 92 % 1007,9 hPa 0,0 l/m 1,4 km/h (1 Bft) O-SO 113 16,4 C 17,7 C 4,8 km/h (1 Bft)
18.08.2019 03:50 17,7 C 92 % 1007,7 hPa 0,2 l/m 0,5 km/h (0 Bft) O-SO 113 16,4 C 17,7 C 3,2 km/h (1 Bft)
18.08.2019 03:45 17,7 C 92 % 1007,7 hPa 0,0 l/m 0,4 km/h (0 Bft) O-SO 113 16,4 C 17,7 C 3,2 km/h (1 Bft)
18.08.2019 03:40 17,7 C 92 % 1007,7 hPa 0,0 l/m 0,9 km/h (0 Bft) O-SO 113 16,4 C 17,7 C 3,2 km/h (1 Bft)
18.08.2019 03:35 17,7 C 92 % 1007,8 hPa 0,0 l/m 1,5 km/h (1 Bft) O-SO 113 16,4 C 17,7 C 4,8 km/h (1 Bft)
18.08.2019 03:30 17,6 C 92 % 1007,9 hPa 0,0 l/m 0,4 km/h (0 Bft) O-SO 113 16,3 C 17,6 C 3,2 km/h (1 Bft)
18.08.2019 03:25 17,6 C 92 % 1007,9 hPa 0,0 l/m 1,1 km/h (1 Bft) O-SO 113 16,3 C 17,6 C 3,2 km/h (1 Bft)
18.08.2019 03:20 17,5 C 92 % 1007,9 hPa 0,0 l/m 1,5 km/h (1 Bft) O-SO 113 16,2 C 17,5 C 4,8 km/h (1 Bft)
18.08.2019 03:15 17,4 C 93 % 1007,9 hPa 0,0 l/m 1,0 km/h (0 Bft) O-SO 113 16,3 C 17,4 C 3,2 km/h (1 Bft)
18.08.2019 03:10 17,4 C 93 % 1007,9 hPa 0,0 l/m 1,1 km/h (1 Bft) O-SO 113 16,3 C 17,4 C 3,2 km/h (1 Bft)
18.08.2019 03:05 17,4 C 93 % 1008,0 hPa 0,0 l/m 0,2 km/h (0 Bft) O-SO 113 16,3 C 17,4 C 1,6 km/h (1 Bft)
18.08.2019 03:00 17,4 C 92 % 1008,2 hPa 0,0 l/m 0,1 km/h (0 Bft) O-SO 113 16,1 C 17,4 C 1,6 km/h (1 Bft)
18.08.2019 02:55 17,4 C 92 % 1008,2 hPa 0,0 l/m 0,9 km/h (0 Bft) O-SO 113 16,1 C 17,4 C 3,2 km/h (1 Bft)
18.08.2019 02:50 17,5 C 92 % 1008,2 hPa 0,0 l/m 0,6 km/h (0 Bft) O-SO 113 16,2 C 17,5 C 3,2 km/h (1 Bft)
18.08.2019 02:45 17,5 C 92 % 1008,2 hPa 0,0 l/m 1,0 km/h (0 Bft) O-SO 113 16,2 C 17,5 C 4,8 km/h (1 Bft)
18.08.2019 02:40 17,5 C 92 % 1008,3 hPa 0,0 l/m 1,6 km/h (1 Bft) O-SO 113 16,2 C 17,5 C 4,8 km/h (1 Bft)
18.08.2019 02:35 17,5 C 92 % 1008,3 hPa 0,0 l/m 0,7 km/h (0 Bft) O-SO 113 16,2 C 17,5 C 3,2 km/h (1 Bft)
18.08.2019 02:30 17,5 C 92 % 1008,5 hPa 0,0 l/m 0,3 km/h (0 Bft) O-SO 113 16,2 C 17,5 C 3,2 km/h (1 Bft)
18.08.2019 02:25 17,5 C 92 % 1008,4 hPa 0,0 l/m 0,3 km/h (0 Bft) O-SO 113 16,2 C 17,5 C 1,6 km/h (1 Bft)
18.08.2019 02:20 17,5 C 92 % 1008,4 hPa 0,0 l/m 0,7 km/h (0 Bft) O-SO 113 16,2 C 17,5 C 4,8 km/h (1 Bft)
18.08.2019 02:15 17,5 C 92 % 1008,4 hPa 0,0 l/m 1,4 km/h (1 Bft) O-SO 113 16,2 C 17,5 C 4,8 km/h (1 Bft)
18.08.2019 02:10 17,4 C 93 % 1008,5 hPa 0,0 l/m 1,3 km/h (1 Bft) O-SO 113 16,3 C 17,4 C 4,8 km/h (1 Bft)
18.08.2019 02:05 17,4 C 93 % 1008,4 hPa 0,0 l/m 1,2 km/h (1 Bft) O-SO 113 16,3 C 17,4 C 3,2 km/h (1 Bft)
18.08.2019 02:00 17,4 C 93 % 1008,5 hPa 0,0 l/m 1,8 km/h (1 Bft) O-SO 113 16,3 C 17,4 C 4,8 km/h (1 Bft)
18.08.2019 01:55 17,4 C 93 % 1008,5 hPa 0,0 l/m 1,8 km/h (1 Bft) O-SO 112 16,3 C 17,4 C 4,8 km/h (1 Bft)
18.08.2019 01:50 17,4 C 93 % 1008,6 hPa 0,0 l/m 2,3 km/h (1 Bft) O 98 16,3 C 17,4 C 6,4 km/h (2 Bft)
18.08.2019 01:45 17,3 C 93 % 1008,7 hPa 0,0 l/m 1,7 km/h (1 Bft) O-SO 111 16,2 C 17,3 C 4,8 km/h (1 Bft)
18.08.2019 01:40 17,3 C 93 % 1008,8 hPa 0,0 l/m 1,2 km/h (1 Bft) O-SO 118 16,2 C 17,3 C 4,8 km/h (1 Bft)
18.08.2019 01:35 17,3 C 93 % 1008,8 hPa 0,0 l/m 0,7 km/h (0 Bft) S-SO 157 16,2 C 17,3 C 3,2 km/h (1 Bft)
18.08.2019 01:30 17,3 C 93 % 1008,9 hPa 0,2 l/m 0,4 km/h (0 Bft) S-SO 157 16,2 C 17,3 C 1,6 km/h (1 Bft)
18.08.2019 01:25 17,3 C 92 % 1008,9 hPa 0,0 l/m 1,2 km/h (1 Bft) S-SO 157 16,0 C 17,3 C 3,2 km/h (1 Bft)
18.08.2019 01:20 17,4 C 92 % 1009,0 hPa 0,0 l/m 0,8 km/h (0 Bft) S-SO 158 16,1 C 17,4 C 3,2 km/h (1 Bft)
18.08.2019 01:15 17,4 C 92 % 1009,1 hPa 0,0 l/m 1,2 km/h (1 Bft) S 173 16,1 C 17,4 C 3,2 km/h (1 Bft)
18.08.2019 01:10 17,5 C 92 % 1009,2 hPa 0,0 l/m 0,0 km/h (0 Bft) S 174 16,2 C 17,5 C 0,0 km/h (0 Bft)
18.08.2019 01:05 17,6 C 91 % 1009,2 hPa 0,0 l/m 0,0 km/h (0 Bft) S 174 16,1 C 17,6 C 0,0 km/h (0 Bft)
18.08.2019 01:00 17,6 C 91 % 1009,2 hPa 0,2 l/m 0,0 km/h (0 Bft) S 174 16,1 C 17,6 C 0,0 km/h (0 Bft)
18.08.2019 00:55 17,6 C 91 % 1009,3 hPa 0,0 l/m 0,0 km/h (0 Bft) S 174 16,1 C 17,6 C 0,0 km/h (0 Bft)
18.08.2019 00:50 17,7 C 91 % 1009,4 hPa 0,0 l/m 0,0 km/h (0 Bft) S 174 16,2 C 17,7 C 0,0 km/h (0 Bft)
18.08.2019 00:45 17,7 C 90 % 1009,5 hPa 0,0 l/m 0,4 km/h (0 Bft) S 174 16,0 C 17,7 C 3,2 km/h (1 Bft)
18.08.2019 00:40 17,7 C 91 % 1009,5 hPa 0,0 l/m 0,4 km/h (0 Bft) S 174 16,2 C 17,7 C 1,6 km/h (1 Bft)
18.08.2019 00:35 17,7 C 90 % 1009,5 hPa 0,0 l/m 0,4 km/h (0 Bft) S 174 16,0 C 17,7 C 3,2 km/h (1 Bft)
18.08.2019 00:30 17,7 C 90 % 1009,6 hPa 0,0 l/m 0,2 km/h (0 Bft) S 174 16,0 C 17,7 C 1,6 km/h (1 Bft)
18.08.2019 00:25 17,7 C 90 % 1009,6 hPa 0,0 l/m 0,1 km/h (0 Bft) S 174 16,0 C 17,7 C 1,6 km/h (1 Bft)
18.08.2019 00:20 17,7 C 90 % 1009,7 hPa 0,0 l/m 0,4 km/h (0 Bft) S 174 16,0 C 17,7 C 1,6 km/h (1 Bft)
18.08.2019 00:15 17,8 C 90 % 1009,6 hPa 0,0 l/m 0,9 km/h (0 Bft) S 174 16,1 C 17,8 C 3,2 km/h (1 Bft)
18.08.2019 00:10 17,9 C 90 % 1009,6 hPa 0,0 l/m 0,5 km/h (0 Bft) S 174 16,2 C 17,9 C 3,2 km/h (1 Bft)
18.08.2019 00:05 17,9 C 89 % 1009,5 hPa 0,0 l/m 0,0 km/h (0 Bft) S 174 16,1 C 17,9 C 1,6 km/h (1 Bft)
18.08.2019 00:00 17,9 C 89 % 1009,4 hPa 0,0 l/m 0,1 km/h (0 Bft) S 174 16,1 C 17,9 C 1,6 km/h (1 Bft)
17.08.2019 23:55 17,9 C 89 % 1009,5 hPa 0,0 l/m 0,1 km/h (0 Bft) S 174 16,1 C 17,9 C 1,6 km/h (1 Bft)
17.08.2019 23:50 17,9 C 88 % 1009,5 hPa 0,0 l/m 0,4 km/h (0 Bft) S 174 15,9 C 17,9 C 1,6 km/h (1 Bft)
17.08.2019 23:45 18,0 C 88 % 1009,5 hPa 0,0 l/m 0,2 km/h (0 Bft) S 174 16,0 C 18,0 C 3,2 km/h (1 Bft)
17.08.2019 23:40 18,1 C 88 % 1009,5 hPa 0,0 l/m 1,5 km/h (1 Bft) S 174 16,1 C 18,1 C 4,8 km/h (1 Bft)
17.08.2019 23:35 18,1 C 88 % 1009,5 hPa 0,0 l/m 0,7 km/h (0 Bft) S-SW 196 16,1 C 18,1 C 3,2 km/h (1 Bft)
17.08.2019 23:30 18,1 C 88 % 1009,6 hPa 0,0 l/m 0,7 km/h (0 Bft) S-SW 200 16,1 C 18,1 C 3,2 km/h (1 Bft)
17.08.2019 23:25 18,0 C 88 % 1009,5 hPa 0,0 l/m 1,6 km/h (1 Bft) SW 221 16,0 C 18,0 C 4,8 km/h (1 Bft)
17.08.2019 23:20 17,9 C 88 % 1009,7 hPa 0,0 l/m 0,3 km/h (0 Bft) SW 230 15,9 C 17,9 C 4,8 km/h (1 Bft)
17.08.2019 23:15 18,0 C 88 % 1009,7 hPa 0,0 l/m 0,7 km/h (0 Bft) S-SO 163 16,0 C 18,0 C 3,2 km/h (1 Bft)
17.08.2019 23:10 18,1 C 88 % 1009,7 hPa 0,0 l/m 0,0 km/h (0 Bft) S-SO 163 16,1 C 18,1 C 1,6 km/h (1 Bft)
17.08.2019 23:05 18,1 C 87 % 1009,6 hPa 0,0 l/m 0,0 km/h (0 Bft) S-SO 163 15,9 C 18,1 C 1,6 km/h (1 Bft)
17.08.2019 23:00 18,2 C 87 % 1009,5 hPa 0,0 l/m 0,0 km/h (0 Bft) S-SO 163 16,0 C 18,2 C 1,6 km/h (1 Bft)
17.08.2019 22:55 18,2 C 87 % 1009,5 hPa 0,0 l/m 1,3 km/h (1 Bft) S-SO 163 16,0 C 18,2 C 3,2 km/h (1 Bft)
17.08.2019 22:50 18,3 C 87 % 1009,4 hPa 0,0 l/m 0,5 km/h (0 Bft) S 175 16,1 C 18,3 C 3,2 km/h (1 Bft)
17.08.2019 22:45 18,2 C 87 % 1009,4 hPa 0,0 l/m 1,3 km/h (1 Bft) S 175 16,0 C 18,2 C 3,2 km/h (1 Bft)
17.08.2019 22:40 18,2 C 87 % 1009,6 hPa 0,0 l/m 0,1 km/h (0 Bft) S-SW 201 16,0 C 18,2 C 1,6 km/h (1 Bft)
17.08.2019 22:35 18,3 C 86 % 1009,6 hPa 0,0 l/m 0,9 km/h (0 Bft) S-SW 201 15,9 C 18,3 C 3,2 km/h (1 Bft)
17.08.2019 22:30 18,3 C 87 % 1009,7 hPa 0,0 l/m 0,9 km/h (0 Bft) S-SW 201 16,1 C 18,3 C 6,4 km/h (2 Bft)
17.08.2019 22:25 18,3 C 86 % 1009,7 hPa 0,0 l/m 0,6 km/h (0 Bft) S-SW 200 15,9 C 18,3 C 4,8 km/h (1 Bft)
17.08.2019 22:20 18,3 C 86 % 1009,7 hPa 0,0 l/m 0,3 km/h (0 Bft) SW 228 15,9 C 18,3 C 1,6 km/h (1 Bft)
17.08.2019 22:15 18,3 C 86 % 1009,8 hPa 0,0 l/m 2,5 km/h (1 Bft) SW 228 15,9 C 18,3 C 6,4 km/h (2 Bft)
17.08.2019 22:10 18,3 C 86 % 1009,6 hPa 0,0 l/m 1,2 km/h (1 Bft) S 189 15,9 C 18,3 C 4,8 km/h (1 Bft)
17.08.2019 22:05 18,3 C 86 % 1009,5 hPa 0,0 l/m 1,5 km/h (1 Bft) S-SO 167 15,9 C 18,3 C 4,8 km/h (1 Bft)
17.08.2019 22:00 18,4 C 86 % 1009,6 hPa 0,0 l/m 1,1 km/h (1 Bft) S 182 16,0 C 18,4 C 4,8 km/h (1 Bft)
17.08.2019 21:55 18,4 C 86 % 1009,9 hPa 0,2 l/m 0,8 km/h (0 Bft) S 184 16,0 C 18,4 C 3,2 km/h (1 Bft)
17.08.2019 21:50 18,5 C 86 % 1009,8 hPa 0,0 l/m 1,0 km/h (0 Bft) W-SW 238 16,1 C 18,5 C 4,8 km/h (1 Bft)
17.08.2019 21:45 18,5 C 85 % 1010,0 hPa 0,0 l/m 2,1 km/h (1 Bft) W-SW 238 15,9 C 18,5 C 4,8 km/h (1 Bft)
17.08.2019 21:40 18,5 C 85 % 1010,2 hPa 0,0 l/m 2,5 km/h (1 Bft) SW 228 15,9 C 18,5 C 6,4 km/h (2 Bft)
17.08.2019 21:35 18,6 C 86 % 1010,1 hPa 0,0 l/m 0,4 km/h (0 Bft) SW 215 16,2 C 18,6 C 3,2 km/h (1 Bft)
17.08.2019 21:30 18,6 C 85 % 1010,0 hPa 0,0 l/m 2,4 km/h (1 Bft) SW 216 16,0 C 18,6 C 6,4 km/h (2 Bft)
17.08.2019 21:25 18,6 C 85 % 1010,0 hPa 0,0 l/m 4,1 km/h (1 Bft) SW 227 16,0 C 18,6 C 12,9 km/h (3 Bft)
17.08.2019 21:20 18,5 C 85 % 1010,1 hPa 0,0 l/m 6,3 km/h (2 Bft) NW 311 15,9 C 18,5 C 14,5 km/h (3 Bft)
17.08.2019 21:15 18,4 C 86 % 1009,8 hPa 0,0 l/m 4,4 km/h (1 Bft) S-SO 161 16,0 C 18,4 C 14,5 km/h (3 Bft)
17.08.2019 21:10 18,5 C 86 % 1009,9 hPa 0,0 l/m 4,2 km/h (1 Bft) N-NO 22 16,1 C 18,5 C 12,9 km/h (3 Bft)
17.08.2019 21:05 18,6 C 85 % 1009,8 hPa 0,0 l/m 2,4 km/h (1 Bft) N 360 16,0 C 18,6 C 4,8 km/h (1 Bft)
17.08.2019 21:00 18,7 C 85 % 1009,6 hPa 0,0 l/m 2,7 km/h (1 Bft) S 180 16,1 C 18,7 C 11,3 km/h (2 Bft)
17.08.2019 20:55 18,8 C 84 % 1009,7 hPa 0,0 l/m 2,0 km/h (1 Bft) W-NW 298 16,0 C 18,8 C 4,8 km/h (1 Bft)
17.08.2019 20:50 18,8 C 84 % 1009,6 hPa 0,0 l/m 1,4 km/h (1 Bft) S-SW 196 16,0 C 18,8 C 9,7 km/h (2 Bft)
17.08.2019 20:45 18,9 C 84 % 1009,7 hPa 0,0 l/m 2,3 km/h (1 Bft) S 190 16,1 C 18,9 C 6,4 km/h (2 Bft)
17.08.2019 20:40 18,9 C 84 % 1009,8 hPa 0,0 l/m 1,5 km/h (1 Bft) SW 222 16,1 C 18,9 C 8,0 km/h (2 Bft)
17.08.2019 20:35 19,0 C 83 % 1009,9 hPa 0,0 l/m 2,3 km/h (1 Bft) SW 232 16,0 C 19,0 C 6,4 km/h (2 Bft)
17.08.2019 20:30 19,1 C 83 % 1009,8 hPa 0,0 l/m 1,9 km/h (1 Bft) SW 224 16,1 C 19,1 C 4,8 km/h (1 Bft)
17.08.2019 20:25 19,2 C 82 % 1009,8 hPa 0,0 l/m 1,6 km/h (1 Bft) W-SW 242 16,0 C 19,2 C 6,4 km/h (2 Bft)
17.08.2019 20:20 19,3 C 82 % 1009,7 hPa 0,0 l/m 3,4 km/h (1 Bft) S-SW 213 16,1 C 19,3 C 11,3 km/h (2 Bft)
17.08.2019 20:15 19,3 C 81 % 1009,7 hPa 0,0 l/m 6,6 km/h (2 Bft) S 190 16,0 C 19,2 C 17,7 km/h (3 Bft)
17.08.2019 20:10 19,4 C 81 % 1009,8 hPa 0,0 l/m 6,3 km/h (2 Bft) SW 217 16,1 C 19,4 C 14,5 km/h (3 Bft)
17.08.2019 20:05 19,5 C 81 % 1009,6 hPa 0,0 l/m 4,3 km/h (1 Bft) SW 216 16,1 C 19,5 C 9,7 km/h (2 Bft)
17.08.2019 20:00 19,6 C 80 % 1009,7 hPa 0,0 l/m 7,3 km/h (2 Bft) S-SW 205 16,1 C 19,2 C 20,9 km/h (4 Bft)
17.08.2019 19:55 19,6 C 80 % 1009,9 hPa 0,0 l/m 4,9 km/h (1 Bft) SW 215 16,1 C 19,6 C 12,9 km/h (3 Bft)
17.08.2019 19:50 19,7 C 79 % 1009,9 hPa 0,0 l/m 4,9 km/h (1 Bft) SW 222 16,0 C 19,7 C 12,9 km/h (3 Bft)
17.08.2019 19:45 19,7 C 79 % 1009,9 hPa 0,0 l/m 4,9 km/h (1 Bft) SW 228 16,0 C 19,7 C 14,5 km/h (3 Bft)
17.08.2019 19:40 19,8 C 79 % 1010,2 hPa 0,0 l/m 6,0 km/h (2 Bft) SW 219 16,0 C 19,8 C 12,9 km/h (3 Bft)
17.08.2019 19:35 19,9 C 79 % 1010,2 hPa 0,0 l/m 3,0 km/h (1 Bft) SW 217 16,1 C 19,9 C 8,0 km/h (2 Bft)
17.08.2019 19:30 19,9 C 79 % 1010,3 hPa 0,0 l/m 5,8 km/h (2 Bft) SW 233 16,1 C 19,9 C 12,9 km/h (3 Bft)
17.08.2019 19:25 19,9 C 79 % 1010,5 hPa 0,0 l/m 6,1 km/h (2 Bft) S-SW 209 16,1 C 19,9 C 12,9 km/h (3 Bft)
17.08.2019 19:20 20,0 C 78 % 1010,4 hPa 0,0 l/m 4,4 km/h (1 Bft) S-SW 198 16,0 C 20,0 C 14,5 km/h (3 Bft)
17.08.2019 19:15 20,1 C 78 % 1010,4 hPa 0,0 l/m 5,0 km/h (1 Bft) W-SW 241 16,1 C 20,1 C 17,7 km/h (3 Bft)
17.08.2019 19:10 20,1 C 78 % 1010,6 hPa 0,0 l/m 4,6 km/h (1 Bft) SW 220 16,1 C 20,1 C 14,5 km/h (3 Bft)
17.08.2019 19:05 20,1 C 77 % 1010,5 hPa 0,0 l/m 5,8 km/h (2 Bft) S-SW 206 15,9 C 20,1 C 16,1 km/h (3 Bft)
17.08.2019 19:00 20,2 C 77 % 1010,5 hPa 0,0 l/m 5,7 km/h (2 Bft) SW 219 16,0 C 20,2 C 12,9 km/h (3 Bft)
17.08.2019 18:55 20,2 C 77 % 1010,5 hPa 0,0 l/m 5,1 km/h (1 Bft) W-NW 294 16,0 C 20,2 C 12,9 km/h (3 Bft)
17.08.2019 18:50 20,2 C 78 % 1010,3 hPa 0,0 l/m 1,8 km/h (1 Bft) W-SW 247 16,2 C 20,2 C 4,8 km/h (1 Bft)
17.08.2019 18:45 20,2 C 78 % 1010,2 hPa 0,0 l/m 5,1 km/h (1 Bft) SW 223 16,2 C 20,2 C 11,3 km/h (2 Bft)
17.08.2019 18:40 20,2 C 77 % 1010,1 hPa 0,0 l/m 7,0 km/h (2 Bft) SW 232 16,0 C 20,0 C 14,5 km/h (3 Bft)
17.08.2019 18:35 20,2 C 77 % 1010,1 hPa 0,0 l/m 5,7 km/h (2 Bft) S-SW 206 16,0 C 20,2 C 14,5 km/h (3 Bft)
17.08.2019 18:30 20,2 C 77 % 1010,1 hPa 0,0 l/m 5,7 km/h (2 Bft) S 190 16,0 C 20,2 C 11,3 km/h (2 Bft)
17.08.2019 18:25 20,2 C 77 % 1010,1 hPa 0,0 l/m 5,5 km/h (2 Bft) W-SW 251 16,0 C 20,2 C 14,5 km/h (3 Bft)
17.08.2019 18:20 20,2 C 78 % 1010,1 hPa 0,0 l/m 4,2 km/h (1 Bft) W-SW 252 16,2 C 20,2 C 9,7 km/h (2 Bft)
17.08.2019 18:15 20,2 C 77 % 1010,1 hPa 0,0 l/m 5,4 km/h (2 Bft) W-SW 238 16,0 C 20,2 C 11,3 km/h (2 Bft)
17.08.2019 18:10 20,2 C 77 % 1010,1 hPa 0,0 l/m 4,8 km/h (1 Bft) S 173 16,0 C 20,2 C 14,5 km/h (3 Bft)
17.08.2019 18:05 20,2 C 77 % 1010,1 hPa 0,0 l/m 7,4 km/h (2 Bft) S 189 16,0 C 19,8 C 16,1 km/h (3 Bft)
17.08.2019 18:00 20,2 C 77 % 1010,1 hPa 0,0 l/m 9,3 km/h (2 Bft) SW 225 16,0 C 19,1 C 24,1 km/h (4 Bft)
17.08.2019 17:55 20,2 C 77 % 1010,1 hPa 0,0 l/m 9,2 km/h (2 Bft) SW 233 16,0 C 19,1 C 20,9 km/h (4 Bft)
17.08.2019 17:50 20,2 C 77 % 1010,0 hPa 0,0 l/m 11,6 km/h (2 Bft) SW 235 16,0 C 18,4 C 19,3 km/h (3 Bft)
17.08.2019 17:45 20,2 C 77 % 1010,2 hPa 0,0 l/m 8,2 km/h (2 Bft) SW 221 16,0 C 19,5 C 19,3 km/h (3 Bft)
17.08.2019 17:40 20,3 C 77 % 1010,2 hPa 0,0 l/m 7,0 km/h (2 Bft) S-SW 200 16,1 C 20,1 C 14,5 km/h (3 Bft)
17.08.2019 17:35 20,3 C 77 % 1010,2 hPa 0,0 l/m 8,1 km/h (2 Bft) SW 233 16,1 C 19,6 C 14,5 km/h (3 Bft)
17.08.2019 17:30 20,3 C 78 % 1010,2 hPa 0,0 l/m 4,7 km/h (1 Bft) SW 221 16,3 C 20,3 C 11,3 km/h (2 Bft)
17.08.2019 17:25 20,3 C 77 % 1010,2 hPa 0,0 l/m 5,4 km/h (2 Bft) W-SW 246 16,1 C 20,3 C 12,9 km/h (3 Bft)
17.08.2019 17:20 20,3 C 77 % 1010,3 hPa 0,0 l/m 5,5 km/h (2 Bft) SW 225 16,1 C 20,3 C 20,9 km/h (4 Bft)
17.08.2019 17:15 20,3 C 76 % 1010,3 hPa 0,0 l/m 8,4 km/h (2 Bft) SW 218 15,9 C 19,5 C 16,1 km/h (3 Bft)
17.08.2019 17:10 20,3 C 76 % 1010,2 hPa 0,0 l/m 5,7 km/h (2 Bft) S-SW 201 15,9 C 20,3 C 14,5 km/h (3 Bft)
17.08.2019 17:05 20,4 C 75 % 1010,1 hPa 0,0 l/m 6,5 km/h (2 Bft) W-SW 242 15,8 C 20,4 C 12,9 km/h (3 Bft)
17.08.2019 17:00 20,4 C 75 % 1010,1 hPa 0,0 l/m 6,6 km/h (2 Bft) SW 216 15,8 C 20,3 C 14,5 km/h (3 Bft)
17.08.2019 16:55 20,4 C 75 % 1009,9 hPa 0,0 l/m 8,1 km/h (2 Bft) W-NW 285 15,8 C 19,7 C 20,9 km/h (4 Bft)
17.08.2019 16:50 20,4 C 75 % 1010,0 hPa 0,0 l/m 7,5 km/h (2 Bft) SW 236 15,8 C 20,0 C 19,3 km/h (3 Bft)
17.08.2019 16:45 20,4 C 75 % 1010,1 hPa 0,0 l/m 6,5 km/h (2 Bft) S-SW 211 15,8 C 20,4 C 20,9 km/h (4 Bft)
17.08.2019 16:40 20,3 C 76 % 1010,1 hPa 0,0 l/m 4,1 km/h (1 Bft) SW 221 15,9 C 20,3 C 14,5 km/h (3 Bft)
17.08.2019 16:35 20,3 C 75 % 1010,2 hPa 0,0 l/m 6,4 km/h (2 Bft) SW 225 15,7 C 20,3 C 14,5 km/h (3 Bft)
17.08.2019 16:30 20,4 C 75 % 1010,3 hPa 0,0 l/m 7,6 km/h (2 Bft) NW 315 15,8 C 19,9 C 19,3 km/h (3 Bft)
17.08.2019 16:25 20,4 C 75 % 1010,4 hPa 0,0 l/m 6,2 km/h (2 Bft) SW 229 15,8 C 20,4 C 17,7 km/h (3 Bft)
17.08.2019 16:20 20,4 C 76 % 1010,3 hPa 0,0 l/m 7,3 km/h (2 Bft) SW 219 16,0 C 20,0 C 20,9 km/h (4 Bft)
17.08.2019 16:15 20,4 C 75 % 1010,3 hPa 0,0 l/m 5,4 km/h (2 Bft) SW 214 15,8 C 20,4 C 14,5 km/h (3 Bft)
17.08.2019 16:10 20,4 C 75 % 1010,4 hPa 0,0 l/m 5,7 km/h (2 Bft) W-SW 241 15,8 C 20,4 C 17,7 km/h (3 Bft)
17.08.2019 16:05 20,4 C 75 % 1010,2 hPa 0,0 l/m 5,5 km/h (2 Bft) W-SW 240 15,8 C 20,4 C 12,9 km/h (3 Bft)
17.08.2019 16:00 20,3 C 75 % 1010,1 hPa 0,0 l/m 5,9 km/h (2 Bft) SW 221 15,7 C 20,3 C 12,9 km/h (3 Bft)
17.08.2019 15:55 20,3 C 74 % 1010,3 hPa 0,0 l/m 8,5 km/h (2 Bft) SW 229 15,5 C 19,5 C 17,7 km/h (3 Bft)
17.08.2019 15:50 20,4 C 74 % 1010,3 hPa 0,0 l/m 6,7 km/h (2 Bft) SW 214 15,6 C 20,3 C 14,5 km/h (3 Bft)
17.08.2019 15:45 20,4 C 74 % 1010,4 hPa 0,0 l/m 5,6 km/h (2 Bft) W-SW 240 15,6 C 20,4 C 14,5 km/h (3 Bft)
17.08.2019 15:40 20,6 C 74 % 1010,2 hPa 0,0 l/m 4,8 km/h (1 Bft) W-SW 237 15,8 C 20,6 C 11,3 km/h (2 Bft)
17.08.2019 15:35 20,6 C 74 % 1010,3 hPa 0,0 l/m 4,0 km/h (1 Bft) SW 229 15,8 C 20,6 C 9,7 km/h (2 Bft)
17.08.2019 15:30 20,6 C 73 % 1010,4 hPa 0,0 l/m 6,1 km/h (2 Bft) W-SW 250 15,6 C 20,6 C 12,9 km/h (3 Bft)
17.08.2019 15:25 20,6 C 73 % 1010,4 hPa 0,0 l/m 7,0 km/h (2 Bft) W-SW 256 15,6 C 20,4 C 16,1 km/h (3 Bft)
17.08.2019 15:20 20,7 C 73 % 1010,5 hPa 0,0 l/m 5,9 km/h (2 Bft) W-NW 302 15,7 C 20,7 C 14,5 km/h (3 Bft)
17.08.2019 15:15 20,7 C 72 % 1010,3 hPa 0,0 l/m 6,1 km/h (2 Bft) W-SW 242 15,5 C 20,7 C 12,9 km/h (3 Bft)
17.08.2019 15:10 20,9 C 72 % 1010,4 hPa 0,0 l/m 7,3 km/h (2 Bft) S-SW 211 15,7 C 20,6 C 19,3 km/h (3 Bft)
17.08.2019 15:05 21,1 C 72 % 1010,6 hPa 0,0 l/m 6,9 km/h (2 Bft) SW 234 15,8 C 20,9 C 17,7 km/h (3 Bft)
17.08.2019 15:00 21,2 C 71 % 1010,4 hPa 0,0 l/m 7,4 km/h (2 Bft) S-SW 213 15,7 C 20,8 C 17,7 km/h (3 Bft)
_ Min-Zeit 06:00 15:00 12:00 - 23:00 - - 05:55 06:15 00:50
Minimum _ 14,6 C 71 % 1005,1 hPa - 0,0 km/h (0 Bft) - - 13,9 C 14,6 C 0,0 km/h (0 Bft)
_ Max-Zeit 13:40 08:10 15:05 04:35 13:50 - - 13:40 13:40 13:50
Maximum _ 23,8 C 97 % 1010,6 hPa 1,0 l/m 14,4 km/h
W (3 Bft)
- - 19,1 C 23,2 C 32,2 km/h
W-SW (5 Bft)
Durchschnitt _ 18,8 C 85 % 1008,5 hPa #9,4 l/m 4,0 km/h (1 Bft) SW - 16,2 C 18,6 C 10,3 km/h (2 Bft)
www.klaudt.eu